Wilpen, Minnesota
Current Conditions -  °F | °C
As of 12:53 PM on Monday 20 Oct 2014 (Local Time) from KHIB Reporting Station
Overcast Overcast  
Wind Chill: 45°   Ceiling: 2200
Heat Index: 49°   Visibility: 10mi
Dew Point: 37°   Wind: 10mph
Humidity: 64%   Direction: 340°NNW
Pressure: 30.01"   Gusts: NA
Location:  47.4158°N, 93.0053°W
Report Text: KHIB 201753Z AUTO 34009KT 10SM OVC022 09/03 A3001 RMK AO2 SLP172 T00940028 10100 20061 53009
Loading
Personal Weather Stations






























Interactive Weather Map
Tropical Storm Tracking
New forecast layout! Learn more

10-Day Weather Forecast

Advertisements
Track Severe Weather on mobile